aviador You're here:

LFRK Decoded Metar

CAEN in FRANCE
Report Time2017-09-23 08:30:00
UTC Time2017-09-23 09:02:25
Flight Rules vfr VFR
Wind110° at 04 kt
W.Decomp.*RWY 13: 3.8 kt HW 1.3 kt LCW
RWY 05: 1.9 kt HW 3.5 kt RCW
W.Rank110° ranks 28
Current wind is below 110° avg. (6.2)
Visibility9999 m
Phenomena:N/A
Clouds:N/A
Expected CloudBase > 800 ft AGL from Temp-Dew spread
CeilingNone
Temp12°C (ISA -3)
Dew Point10°C (88% RH)
AAT10.6°C
QNH1023 hPa
Density Alt-256 ft
Elevation220 ft
Report Wrong Elevation
Raw Report
LFRK 230830Z AUTO 11004KT CAVOK 12/10 Q1023 NOSIG=

Extra information for LFRK:More info

Metar Taf Metar & Taf Last 4 Metars F.Rules Stats Wind Profile Meteogram Temp Stats Airport Information Weather charts Add Link Nearby VenuesMetar ALERT Operation Metar Decoded Social comments